sensor_id;sensor_type;location;lat;lon;timestamp;P1;durP1;ratioP1;P2;durP2;ratioP2
23068;SDS011;11702;50.856;4.348;2023-03-19T00:01:15;5.57;;;3.38;;
23068;SDS011;11702;50.856;4.348;2023-03-19T00:03:41;4.13;;;3.45;;
23068;SDS011;11702;50.856;4.348;2023-03-19T00:06:07;6.95;;;3.50;;
23068;SDS011;11702;50.856;4.348;2023-03-19T00:08:32;4.43;;;3.28;;
23068;SDS011;11702;50.856;4.348;2023-03-19T00:10:58;7.00;;;3.35;;
23068;SDS011;11702;50.856;4.348;2023-03-19T00:15:55;4.30;;;2.97;;
23068;SDS011;11702;50.856;4.348;2023-03-19T00:18:21;5.75;;;3.65;;
23068;SDS011;11702;50.856;4.348;2023-03-19T00:20:46;7.00;;;3.35;;
23068;SDS011;11702;50.856;4.348;2023-03-19T00:23:13;8.40;;;3.50;;
23068;SDS011;11702;50.856;4.348;2023-03-19T00:25:39;8.93;;;3.70;;
23068;SDS011;11702;50.856;4.348;2023-03-19T00:28:06;5.65;;;3.63;;
23068;SDS011;11702;50.856;4.348;2023-03-19T00:30:33;4.82;;;4.32;;
23068;SDS011;11702;50.856;4.348;2023-03-19T00:32:59;5.90;;;4.00;;
23068;SDS011;11702;50.856;4.348;2023-03-19T00:35:25;5.97;;;4.38;;
23068;SDS011;11702;50.856;4.348;2023-03-19T00:37:51;6.38;;;4.03;;
23068;SDS011;11702;50.856;4.348;2023-03-19T00:40:16;8.05;;;4.60;;
23068;SDS011;11702;50.856;4.348;2023-03-19T00:42:42;6.55;;;3.83;;
23068;SDS011;11702;50.856;4.348;2023-03-19T00:45:09;4.93;;;3.90;;
23068;SDS011;11702;50.856;4.348;2023-03-19T00:47:35;5.72;;;4.45;;
23068;SDS011;11702;50.856;4.348;2023-03-19T00:50:02;6.25;;;4.43;;
23068;SDS011;11702;50.856;4.348;2023-03-19T00:52:29;6.88;;;4.13;;
23068;SDS011;11702;50.856;4.348;2023-03-19T00:54:55;5.60;;;4.25;;
23068;SDS011;11702;50.856;4.348;2023-03-19T00:57:21;5.30;;;4.15;;
23068;SDS011;11702;50.856;4.348;2023-03-19T00:59:47;6.10;;;4.05;;
23068;SDS011;11702;50.856;4.348;2023-03-19T01:02:13;8.48;;;4.25;;
23068;SDS011;11702;50.856;4.348;2023-03-19T01:04:39;7.22;;;4.82;;
23068;SDS011;11702;50.856;4.348;2023-03-19T01:07:05;8.07;;;4.20;;
23068;SDS011;11702;50.856;4.348;2023-03-19T01:09:30;6.50;;;4.00;;
23068;SDS011;11702;50.856;4.348;2023-03-19T01:11:59;9.20;;;4.05;;
23068;SDS011;11702;50.856;4.348;2023-03-19T01:14:28;5.70;;;3.95;;
23068;SDS011;11702;50.856;4.348;2023-03-19T01:16:55;6.20;;;4.22;;
23068;SDS011;11702;50.856;4.348;2023-03-19T01:19:21;7.25;;;3.97;;
23068;SDS011;11702;50.856;4.348;2023-03-19T01:21:47;8.10;;;4.13;;
23068;SDS011;11702;50.856;4.348;2023-03-19T01:24:13;6.43;;;4.15;;
23068;SDS011;11702;50.856;4.348;2023-03-19T01:26:40;6.15;;;3.97;;
23068;SDS011;11702;50.856;4.348;2023-03-19T01:29:06;9.82;;;4.95;;
23068;SDS011;11702;50.856;4.348;2023-03-19T01:31:32;5.88;;;3.95;;
23068;SDS011;11702;50.856;4.348;2023-03-19T01:33:58;6.00;;;4.38;;
23068;SDS011;11702;50.856;4.348;2023-03-19T01:36:24;5.97;;;4.10;;
23068;SDS011;11702;50.856;4.348;2023-03-19T01:38:50;6.95;;;4.30;;
23068;SDS011;11702;50.856;4.348;2023-03-19T01:41:16;7.10;;;4.50;;
23068;SDS011;11702;50.856;4.348;2023-03-19T01:43:42;7.88;;;4.55;;
23068;SDS011;11702;50.856;4.348;2023-03-19T01:46:16;7.05;;;4.43;;
23068;SDS011;11702;50.856;4.348;2023-03-19T01:49:04;8.05;;;4.90;;
23068;SDS011;11702;50.856;4.348;2023-03-19T01:51:33;7.53;;;4.65;;
23068;SDS011;11702;50.856;4.348;2023-03-19T01:54:04;6.88;;;4.60;;
23068;SDS011;11702;50.856;4.348;2023-03-19T01:56:37;5.88;;;4.50;;
23068;SDS011;11702;50.856;4.348;2023-03-19T01:59:08;6.00;;;4.18;;
23068;SDS011;11702;50.856;4.348;2023-03-19T02:01:43;8.13;;;4.45;;
23068;SDS011;11702;50.856;4.348;2023-03-19T02:04:19;6.38;;;5.13;;
23068;SDS011;11702;50.856;4.348;2023-03-19T02:06:45;6.35;;;4.82;;
23068;SDS011;11702;50.856;4.348;2023-03-19T02:09:11;8.50;;;5.20;;
23068;SDS011;11702;50.856;4.348;2023-03-19T02:11:38;7.93;;;5.03;;
23068;SDS011;11702;50.856;4.348;2023-03-19T02:14:05;6.95;;;5.00;;
23068;SDS011;11702;50.856;4.348;2023-03-19T02:16:31;8.18;;;5.53;;
23068;SDS011;11702;50.856;4.348;2023-03-19T02:18:58;11.48;;;5.50;;
23068;SDS011;11702;50.856;4.348;2023-03-19T02:21:26;7.70;;;5.00;;
23068;SDS011;11702;50.856;4.348;2023-03-19T02:24:15;10.75;;;6.00;;
23068;SDS011;11702;50.856;4.348;2023-03-19T02:26:59;7.00;;;5.35;;
23068;SDS011;11702;50.856;4.348;2023-03-19T02:29:30;9.60;;;5.88;;
23068;SDS011;11702;50.856;4.348;2023-03-19T02:31:56;10.20;;;6.35;;
23068;SDS011;11702;50.856;4.348;2023-03-19T02:37:43;9.48;;;6.13;;
23068;SDS011;11702;50.856;4.348;2023-03-19T02:39:58;10.90;;;6.20;;
23068;SDS011;11702;50.856;4.348;2023-03-19T02:42:29;8.70;;;5.88;;
23068;SDS011;11702;50.856;4.348;2023-03-19T02:45:00;11.60;;;6.68;;
23068;SDS011;11702;50.856;4.348;2023-03-19T02:47:27;9.23;;;6.68;;
23068;SDS011;11702;50.856;4.348;2023-03-19T02:49:56;9.90;;;6.43;;
23068;SDS011;11702;50.856;4.348;2023-03-19T02:52:30;10.10;;;7.10;;
23068;SDS011;11702;50.856;4.348;2023-03-19T02:54:59;9.00;;;6.40;;
23068;SDS011;11702;50.856;4.348;2023-03-19T02:57:48;11.15;;;7.13;;
23068;SDS011;11702;50.856;4.348;2023-03-19T03:00:16;10.57;;;7.38;;
23068;SDS011;11702;50.856;4.348;2023-03-19T03:02:52;10.48;;;7.85;;
23068;SDS011;11702;50.856;4.348;2023-03-19T03:05:23;12.75;;;7.80;;
23068;SDS011;11702;50.856;4.348;2023-03-19T03:07:50;11.95;;;8.02;;
23068;SDS011;11702;50.856;4.348;2023-03-19T03:10:17;9.73;;;7.95;;
23068;SDS011;11702;50.856;4.348;2023-03-19T03:12:43;14.57;;;8.73;;
23068;SDS011;11702;50.856;4.348;2023-03-19T03:15:10;12.50;;;8.48;;
23068;SDS011;11702;50.856;4.348;2023-03-19T03:17:39;11.23;;;8.63;;
23068;SDS011;11702;50.856;4.348;2023-03-19T03:20:06;12.98;;;9.18;;
23068;SDS011;11702;50.856;4.348;2023-03-19T03:22:41;10.68;;;8.50;;
23068;SDS011;11702;50.856;4.348;2023-03-19T03:25:28;12.68;;;9.10;;
23068;SDS011;11702;50.856;4.348;2023-03-19T03:28:16;13.18;;;8.93;;
23068;SDS011;11702;50.856;4.348;2023-03-19T03:30:45;13.00;;;9.30;;
23068;SDS011;11702;50.856;4.348;2023-03-19T03:33:13;11.65;;;9.15;;
23068;SDS011;11702;50.856;4.348;2023-03-19T03:35:39;13.60;;;8.70;;
23068;SDS011;11702;50.856;4.348;2023-03-19T03:38:18;11.48;;;9.45;;
23068;SDS011;11702;50.856;4.348;2023-03-19T03:40:44;12.30;;;8.73;;
23068;SDS011;11702;50.856;4.348;2023-03-19T03:43:38;11.15;;;8.95;;
23068;SDS011;11702;50.856;4.348;2023-03-19T03:46:16;14.45;;;9.25;;
23068;SDS011;11702;50.856;4.348;2023-03-19T03:48:48;16.88;;;9.82;;
23068;SDS011;11702;50.856;4.348;2023-03-19T03:51:22;13.38;;;10.23;;
23068;SDS011;11702;50.856;4.348;2023-03-19T03:53:48;16.63;;;11.00;;
23068;SDS011;11702;50.856;4.348;2023-03-19T03:56:37;15.32;;;11.10;;
23068;SDS011;11702;50.856;4.348;2023-03-19T03:59:04;15.75;;;11.30;;
23068;SDS011;11702;50.856;4.348;2023-03-19T04:01:33;21.23;;;13.05;;
23068;SDS011;11702;50.856;4.348;2023-03-19T04:04:00;15.90;;;11.85;;
23068;SDS011;11702;50.856;4.348;2023-03-19T04:06:26;19.35;;;12.15;;
23068;SDS011;11702;50.856;4.348;2023-03-19T04:08:52;20.42;;;12.40;;
23068;SDS011;11702;50.856;4.348;2023-03-19T04:11:18;19.33;;;12.40;;
23068;SDS011;11702;50.856;4.348;2023-03-19T04:13:45;22.63;;;12.25;;
23068;SDS011;11702;50.856;4.348;2023-03-19T04:16:11;20.67;;;12.80;;
23068;SDS011;11702;50.856;4.348;2023-03-19T04:18:37;20.55;;;12.52;;
23068;SDS011;11702;50.856;4.348;2023-03-19T04:21:04;20.73;;;12.82;;
23068;SDS011;11702;50.856;4.348;2023-03-19T04:23:30;19.25;;;12.18;;
23068;SDS011;11702;50.856;4.348;2023-03-19T04:26:00;22.45;;;11.80;;
23068;SDS011;11702;50.856;4.348;2023-03-19T04:28:28;20.98;;;11.48;;
23068;SDS011;11702;50.856;4.348;2023-03-19T04:30:59;18.52;;;10.77;;
23068;SDS011;11702;50.856;4.348;2023-03-19T04:33:30;13.52;;;9.40;;
23068;SDS011;11702;50.856;4.348;2023-03-19T04:35:56;12.75;;;9.23;;
23068;SDS011;11702;50.856;4.348;2023-03-19T04:38:23;18.48;;;10.40;;
23068;SDS011;11702;50.856;4.348;2023-03-19T04:41:05;15.43;;;9.73;;
23068;SDS011;11702;50.856;4.348;2023-03-19T04:43:42;14.57;;;9.88;;
23068;SDS011;11702;50.856;4.348;2023-03-19T04:46:08;15.90;;;9.48;;
23068;SDS011;11702;50.856;4.348;2023-03-19T04:48:34;15.25;;;9.88;;
23068;SDS011;11702;50.856;4.348;2023-03-19T04:51:02;17.83;;;10.95;;
23068;SDS011;11702;50.856;4.348;2023-03-19T04:53:29;15.35;;;10.52;;
23068;SDS011;11702;50.856;4.348;2023-03-19T04:55:54;22.80;;;11.73;;
23068;SDS011;11702;50.856;4.348;2023-03-19T04:58:23;18.02;;;10.70;;
23068;SDS011;11702;50.856;4.348;2023-03-19T05:00:53;17.10;;;12.07;;
23068;SDS011;11702;50.856;4.348;2023-03-19T05:03:19;17.45;;;11.95;;
23068;SDS011;11702;50.856;4.348;2023-03-19T05:05:45;17.83;;;12.68;;
23068;SDS011;11702;50.856;4.348;2023-03-19T05:08:11;16.40;;;12.35;;
23068;SDS011;11702;50.856;4.348;2023-03-19T05:10:38;19.17;;;12.30;;
23068;SDS011;11702;50.856;4.348;2023-03-19T05:13:04;21.70;;;13.27;;
23068;SDS011;11702;50.856;4.348;2023-03-19T05:15:33;22.55;;;13.15;;
23068;SDS011;11702;50.856;4.348;2023-03-19T05:17:58;19.48;;;13.05;;
23068;SDS011;11702;50.856;4.348;2023-03-19T05:20:24;22.63;;;12.73;;
23068;SDS011;11702;50.856;4.348;2023-03-19T05:22:50;17.65;;;12.77;;
23068;SDS011;11702;50.856;4.348;2023-03-19T05:25:17;21.88;;;12.80;;
23068;SDS011;11702;50.856;4.348;2023-03-19T05:27:43;22.83;;;12.88;;
23068;SDS011;11702;50.856;4.348;2023-03-19T05:30:09;24.15;;;13.13;;
23068;SDS011;11702;50.856;4.348;2023-03-19T05:32:42;20.40;;;11.90;;
23068;SDS011;11702;50.856;4.348;2023-03-19T05:35:12;20.90;;;11.93;;
23068;SDS011;11702;50.856;4.348;2023-03-19T05:37:38;18.88;;;11.15;;
23068;SDS011;11702;50.856;4.348;2023-03-19T05:40:04;16.67;;;10.90;;
23068;SDS011;11702;50.856;4.348;2023-03-19T05:42:30;18.38;;;10.75;;
23068;SDS011;11702;50.856;4.348;2023-03-19T05:44:56;15.95;;;10.35;;
23068;SDS011;11702;50.856;4.348;2023-03-19T05:47:22;22.63;;;10.73;;
23068;SDS011;11702;50.856;4.348;2023-03-19T05:49:47;17.83;;;10.45;;
23068;SDS011;11702;50.856;4.348;2023-03-19T05:52:13;15.43;;;9.98;;
23068;SDS011;11702;50.856;4.348;2023-03-19T05:54:41;20.05;;;10.38;;
23068;SDS011;11702;50.856;4.348;2023-03-19T05:57:07;21.00;;;9.77;;
23068;SDS011;11702;50.856;4.348;2023-03-19T05:59:33;17.52;;;9.40;;
23068;SDS011;11702;50.856;4.348;2023-03-19T06:02:19;14.68;;;9.20;;
23068;SDS011;11702;50.856;4.348;2023-03-19T06:04:45;13.88;;;8.68;;
23068;SDS011;11702;50.856;4.348;2023-03-19T06:07:10;13.13;;;8.60;;
23068;SDS011;11702;50.856;4.348;2023-03-19T06:09:36;15.32;;;8.00;;
23068;SDS011;11702;50.856;4.348;2023-03-19T06:12:02;15.88;;;9.23;;
23068;SDS011;11702;50.856;4.348;2023-03-19T06:14:28;15.65;;;8.55;;
23068;SDS011;11702;50.856;4.348;2023-03-19T06:16:53;16.55;;;9.13;;
23068;SDS011;11702;50.856;4.348;2023-03-19T06:19:19;14.18;;;8.38;;
23068;SDS011;11702;50.856;4.348;2023-03-19T06:21:45;13.88;;;7.90;;
23068;SDS011;11702;50.856;4.348;2023-03-19T06:24:11;18.77;;;8.68;;
23068;SDS011;11702;50.856;4.348;2023-03-19T06:26:37;18.20;;;8.80;;
23068;SDS011;11702;50.856;4.348;2023-03-19T06:29:02;17.60;;;8.60;;
23068;SDS011;11702;50.856;4.348;2023-03-19T06:31:28;13.90;;;7.82;;
23068;SDS011;11702;50.856;4.348;2023-03-19T06:33:54;18.05;;;8.63;;
23068;SDS011;11702;50.856;4.348;2023-03-19T06:36:20;14.13;;;8.52;;
23068;SDS011;11702;50.856;4.348;2023-03-19T06:38:46;13.00;;;7.78;;
23068;SDS011;11702;50.856;4.348;2023-03-19T06:41:11;14.02;;;8.02;;
23068;SDS011;11702;50.856;4.348;2023-03-19T06:43:37;12.85;;;7.53;;
23068;SDS011;11702;50.856;4.348;2023-03-19T06:46:05;11.98;;;7.80;;
23068;SDS011;11702;50.856;4.348;2023-03-19T06:48:33;13.95;;;8.32;;
23068;SDS011;11702;50.856;4.348;2023-03-19T06:50:59;17.10;;;7.50;;
23068;SDS011;11702;50.856;4.348;2023-03-19T06:53:25;11.68;;;7.80;;
23068;SDS011;11702;50.856;4.348;2023-03-19T06:55:52;15.77;;;7.72;;
23068;SDS011;11702;50.856;4.348;2023-03-19T06:58:17;13.00;;;7.93;;
23068;SDS011;11702;50.856;4.348;2023-03-19T07:00:43;13.70;;;8.15;;
23068;SDS011;11702;50.856;4.348;2023-03-19T07:03:08;13.13;;;7.65;;
23068;SDS011;11702;50.856;4.348;2023-03-19T07:05:34;17.40;;;9.13;;
23068;SDS011;11702;50.856;4.348;2023-03-19T07:08:00;20.90;;;8.45;;
23068;SDS011;11702;50.856;4.348;2023-03-19T07:10:26;15.43;;;8.90;;
23068;SDS011;11702;50.856;4.348;2023-03-19T07:12:51;16.20;;;8.55;;
23068;SDS011;11702;50.856;4.348;2023-03-19T07:15:17;17.20;;;8.95;;
23068;SDS011;11702;50.856;4.348;2023-03-19T07:17:45;17.08;;;8.30;;
23068;SDS011;11702;50.856;4.348;2023-03-19T07:20:11;15.75;;;8.00;;
23068;SDS011;11702;50.856;4.348;2023-03-19T07:22:38;10.38;;;6.50;;
23068;SDS011;11702;50.856;4.348;2023-03-19T07:25:04;11.77;;;7.07;;
23068;SDS011;11702;50.856;4.348;2023-03-19T07:27:30;10.75;;;5.57;;
23068;SDS011;11702;50.856;4.348;2023-03-19T07:29:55;14.02;;;6.65;;
23068;SDS011;11702;50.856;4.348;2023-03-19T07:32:21;10.13;;;5.43;;
23068;SDS011;11702;50.856;4.348;2023-03-19T07:34:47;13.50;;;6.85;;
23068;SDS011;11702;50.856;4.348;2023-03-19T07:37:13;13.80;;;5.75;;
23068;SDS011;11702;50.856;4.348;2023-03-19T07:39:39;18.48;;;6.63;;
23068;SDS011;11702;50.856;4.348;2023-03-19T07:42:05;10.77;;;6.40;;
23068;SDS011;11702;50.856;4.348;2023-03-19T07:44:31;10.30;;;6.13;;
23068;SDS011;11702;50.856;4.348;2023-03-19T07:46:57;10.82;;;5.38;;
23068;SDS011;11702;50.856;4.348;2023-03-19T07:49:23;16.02;;;6.25;;
23068;SDS011;11702;50.856;4.348;2023-03-19T07:51:49;13.13;;;6.75;;
23068;SDS011;11702;50.856;4.348;2023-03-19T07:54:15;11.38;;;5.22;;
23068;SDS011;11702;50.856;4.348;2023-03-19T07:56:41;13.40;;;5.53;;
23068;SDS011;11702;50.856;4.348;2023-03-19T07:59:06;12.48;;;5.72;;
23068;SDS011;11702;50.856;4.348;2023-03-19T08:01:32;12.52;;;6.10;;
23068;SDS011;11702;50.856;4.348;2023-03-19T08:03:57;16.65;;;6.10;;
23068;SDS011;11702;50.856;4.348;2023-03-19T08:06:23;11.60;;;5.68;;
23068;SDS011;11702;50.856;4.348;2023-03-19T08:08:49;15.48;;;6.22;;
23068;SDS011;11702;50.856;4.348;2023-03-19T08:11:14;19.50;;;5.55;;
23068;SDS011;11702;50.856;4.348;2023-03-19T08:13:41;12.55;;;5.10;;
23068;SDS011;11702;50.856;4.348;2023-03-19T08:16:06;15.55;;;5.38;;
23068;SDS011;11702;50.856;4.348;2023-03-19T08:18:33;12.50;;;5.22;;
23068;SDS011;11702;50.856;4.348;2023-03-19T08:20:59;17.65;;;5.10;;
23068;SDS011;11702;50.856;4.348;2023-03-19T08:23:24;15.93;;;6.00;;
23068;SDS011;11702;50.856;4.348;2023-03-19T08:25:51;15.00;;;5.35;;
23068;SDS011;11702;50.856;4.348;2023-03-19T08:28:17;11.60;;;5.18;;
23068;SDS011;11702;50.856;4.348;2023-03-19T08:30:43;16.13;;;4.65;;
23068;SDS011;11702;50.856;4.348;2023-03-19T08:33:09;18.05;;;6.22;;
23068;SDS011;11702;50.856;4.348;2023-03-19T08:35:35;15.80;;;4.70;;
23068;SDS011;11702;50.856;4.348;2023-03-19T08:38:00;17.20;;;4.93;;
23068;SDS011;11702;50.856;4.348;2023-03-19T08:40:26;14.20;;;4.20;;
23068;SDS011;11702;50.856;4.348;2023-03-19T08:42:52;14.00;;;4.78;;
23068;SDS011;11702;50.856;4.348;2023-03-19T08:45:18;14.23;;;4.60;;
23068;SDS011;11702;50.856;4.348;2023-03-19T08:47:44;12.60;;;3.97;;
23068;SDS011;11702;50.856;4.348;2023-03-19T08:50:10;15.63;;;4.50;;
23068;SDS011;11702;50.856;4.348;2023-03-19T08:52:36;14.48;;;4.28;;
23068;SDS011;11702;50.856;4.348;2023-03-19T08:55:02;10.93;;;4.40;;
23068;SDS011;11702;50.856;4.348;2023-03-19T08:57:29;19.25;;;4.85;;
23068;SDS011;11702;50.856;4.348;2023-03-19T08:59:56;13.95;;;4.68;;
23068;SDS011;11702;50.856;4.348;2023-03-19T09:02:21;17.27;;;4.55;;
23068;SDS011;11702;50.856;4.348;2023-03-19T09:04:47;16.15;;;3.97;;
23068;SDS011;11702;50.856;4.348;2023-03-19T09:07:12;12.85;;;4.22;;
23068;SDS011;11702;50.856;4.348;2023-03-19T09:09:39;13.73;;;4.10;;
23068;SDS011;11702;50.856;4.348;2023-03-19T09:12:07;13.52;;;4.30;;
23068;SDS011;11702;50.856;4.348;2023-03-19T09:14:35;11.63;;;3.92;;
23068;SDS011;11702;50.856;4.348;2023-03-19T09:17:01;14.90;;;5.13;;
23068;SDS011;11702;50.856;4.348;2023-03-19T09:19:27;12.75;;;4.35;;
23068;SDS011;11702;50.856;4.348;2023-03-19T09:21:53;12.13;;;4.63;;
23068;SDS011;11702;50.856;4.348;2023-03-19T09:24:19;11.52;;;4.13;;
23068;SDS011;11702;50.856;4.348;2023-03-19T09:26:45;15.82;;;4.35;;
23068;SDS011;11702;50.856;4.348;2023-03-19T09:29:11;18.52;;;5.07;;
23068;SDS011;11702;50.856;4.348;2023-03-19T09:31:37;20.20;;;5.45;;
23068;SDS011;11702;50.856;4.348;2023-03-19T09:34:03;11.85;;;4.55;;
23068;SDS011;11702;50.856;4.348;2023-03-19T09:36:31;14.10;;;5.30;;
23068;SDS011;11702;50.856;4.348;2023-03-19T09:39:00;17.63;;;5.05;;
23068;SDS011;11702;50.856;4.348;2023-03-19T09:44:50;21.90;;;4.65;;
23068;SDS011;11702;50.856;4.348;2023-03-19T09:49:47;13.25;;;4.22;;
23068;SDS011;11702;50.856;4.348;2023-03-19T09:55:04;19.65;;;5.45;;
23068;SDS011;11702;50.856;4.348;2023-03-19T09:57:32;13.98;;;4.57;;
23068;SDS011;11702;50.856;4.348;2023-03-19T09:59:59;11.30;;;3.90;;
23068;SDS011;11702;50.856;4.348;2023-03-19T10:02:41;12.52;;;4.15;;
23068;SDS011;11702;50.856;4.348;2023-03-19T10:05:16;13.95;;;4.53;;
23068;SDS011;11702;50.856;4.348;2023-03-19T10:15:55;12.60;;;5.38;;
23068;SDS011;11702;50.856;4.348;2023-03-19T10:18:25;17.08;;;4.93;;
23068;SDS011;11702;50.856;4.348;2023-03-19T10:21:02;11.35;;;4.25;;
23068;SDS011;11702;50.856;4.348;2023-03-19T10:23:52;12.23;;;4.57;;
23068;SDS011;11702;50.856;4.348;2023-03-19T10:26:23;10.93;;;4.72;;
23068;SDS011;11702;50.856;4.348;2023-03-19T10:29:36;11.82;;;4.82;;
23068;SDS011;11702;50.856;4.348;2023-03-19T10:32:05;11.77;;;4.57;;
23068;SDS011;11702;50.856;4.348;2023-03-19T10:34:48;13.95;;;4.85;;
23068;SDS011;11702;50.856;4.348;2023-03-19T10:37:25;13.85;;;5.57;;
23068;SDS011;11702;50.856;4.348;2023-03-19T10:39:56;15.00;;;4.93;;
23068;SDS011;11702;50.856;4.348;2023-03-19T10:47:47;11.70;;;5.20;;
23068;SDS011;11702;50.856;4.348;2023-03-19T10:50:20;14.73;;;5.50;;
23068;SDS011;11702;50.856;4.348;2023-03-19T10:52:55;14.20;;;5.15;;
23068;SDS011;11702;50.856;4.348;2023-03-19T10:55:31;16.30;;;5.20;;
23068;SDS011;11702;50.856;4.348;2023-03-19T10:58:05;17.33;;;5.60;;
23068;SDS011;11702;50.856;4.348;2023-03-19T11:00:44;14.93;;;5.15;;
23068;SDS011;11702;50.856;4.348;2023-03-19T11:03:28;18.15;;;5.38;;
23068;SDS011;11702;50.856;4.348;2023-03-19T11:08:59;13.77;;;5.55;;
23068;SDS011;11702;50.856;4.348;2023-03-19T11:11:43;12.57;;;5.35;;
23068;SDS011;11702;50.856;4.348;2023-03-19T11:17:18;10.65;;;6.07;;
23068;SDS011;11702;50.856;4.348;2023-03-19T11:19:54;17.90;;;7.50;;
23068;SDS011;11702;50.856;4.348;2023-03-19T11:22:26;13.15;;;5.25;;
23068;SDS011;11702;50.856;4.348;2023-03-19T11:24:59;13.48;;;5.78;;
23068;SDS011;11702;50.856;4.348;2023-03-19T11:27:28;9.85;;;5.18;;
23068;SDS011;11702;50.856;4.348;2023-03-19T11:30:03;11.68;;;4.97;;
23068;SDS011;11702;50.856;4.348;2023-03-19T11:32:44;11.85;;;5.20;;
23068;SDS011;11702;50.856;4.348;2023-03-19T11:35:24;10.05;;;4.63;;
23068;SDS011;11702;50.856;4.348;2023-03-19T11:40:41;12.73;;;5.75;;
23068;SDS011;11702;50.856;4.348;2023-03-19T11:48:39;12.00;;;5.85;;
23068;SDS011;11702;50.856;4.348;2023-03-19T11:54:18;14.38;;;6.85;;
23068;SDS011;11702;50.856;4.348;2023-03-19T12:04:50;12.50;;;7.68;;
23068;SDS011;11702;50.856;4.348;2023-03-19T12:07:44;15.60;;;7.88;;
23068;SDS011;11702;50.856;4.348;2023-03-19T12:15:41;18.08;;;10.15;;
23068;SDS011;11702;50.856;4.348;2023-03-19T12:35:33;23.63;;;11.68;;
23068;SDS011;11702;50.856;4.348;2023-03-19T12:38:17;16.85;;;9.65;;
23068;SDS011;11702;50.856;4.348;2023-03-19T12:40:51;20.17;;;10.93;;
23068;SDS011;11702;50.856;4.348;2023-03-19T12:43:28;16.60;;;9.25;;
23068;SDS011;11702;50.856;4.348;2023-03-19T12:46:12;11.50;;;7.97;;
23068;SDS011;11702;50.856;4.348;2023-03-19T12:48:56;14.82;;;8.75;;
23068;SDS011;11702;50.856;4.348;2023-03-19T12:51:40;13.85;;;8.45;;
23068;SDS011;11702;50.856;4.348;2023-03-19T12:54:13;16.43;;;8.17;;
23068;SDS011;11702;50.856;4.348;2023-03-19T12:56:55;17.13;;;8.63;;
23068;SDS011;11702;50.856;4.348;2023-03-19T13:07:53;18.25;;;9.15;;
23068;SDS011;11702;50.856;4.348;2023-03-19T13:10:41;11.48;;;8.15;;
23068;SDS011;11702;50.856;4.348;2023-03-19T13:16:09;17.35;;;9.85;;
23068;SDS011;11702;50.856;4.348;2023-03-19T13:21:35;13.13;;;9.25;;
23068;SDS011;11702;50.856;4.348;2023-03-19T13:24:16;13.75;;;9.73;;
23068;SDS011;11702;50.856;4.348;2023-03-19T13:26:52;18.20;;;9.93;;
23068;SDS011;11702;50.856;4.348;2023-03-19T13:29:21;17.98;;;10.75;;
23068;SDS011;11702;50.856;4.348;2023-03-19T13:31:48;17.38;;;10.40;;
23068;SDS011;11702;50.856;4.348;2023-03-19T13:34:23;15.48;;;9.55;;
23068;SDS011;11702;50.856;4.348;2023-03-19T13:37:24;17.90;;;9.07;;
23068;SDS011;11702;50.856;4.348;2023-03-19T13:39:45;11.75;;;7.13;;
23068;SDS011;11702;50.856;4.348;2023-03-19T13:44:48;12.13;;;7.40;;
23068;SDS011;11702;50.856;4.348;2023-03-19T14:03:23;9.93;;;6.28;;
23068;SDS011;11702;50.856;4.348;2023-03-19T14:05:51;6.90;;;4.90;;
23068;SDS011;11702;50.856;4.348;2023-03-19T14:08:20;6.80;;;5.03;;
23068;SDS011;11702;50.856;4.348;2023-03-19T14:10:57;7.30;;;5.38;;
23068;SDS011;11702;50.856;4.348;2023-03-19T14:15:52;9.43;;;5.20;;
23068;SDS011;11702;50.856;4.348;2023-03-19T14:18:39;9.05;;;6.60;;
23068;SDS011;11702;50.856;4.348;2023-03-19T14:21:08;12.00;;;6.57;;
23068;SDS011;11702;50.856;4.348;2023-03-19T14:23:39;11.27;;;6.53;;
23068;SDS011;11702;50.856;4.348;2023-03-19T14:26:22;8.57;;;6.35;;
23068;SDS011;11702;50.856;4.348;2023-03-19T14:28:57;14.88;;;7.22;;
23068;SDS011;11702;50.856;4.348;2023-03-19T14:31:32;10.15;;;5.75;;
23068;SDS011;11702;50.856;4.348;2023-03-19T14:34:25;9.27;;;6.13;;
23068;SDS011;11702;50.856;4.348;2023-03-19T14:36:59;8.77;;;5.72;;
23068;SDS011;11702;50.856;4.348;2023-03-19T14:39:29;9.38;;;5.78;;
23068;SDS011;11702;50.856;4.348;2023-03-19T14:42:25;11.10;;;5.40;;
23068;SDS011;11702;50.856;4.348;2023-03-19T14:47:58;9.90;;;6.30;;
23068;SDS011;11702;50.856;4.348;2023-03-19T14:53:40;7.47;;;5.25;;
23068;SDS011;11702;50.856;4.348;2023-03-19T14:56:20;9.18;;;5.30;;
23068;SDS011;11702;50.856;4.348;2023-03-19T14:58:55;7.63;;;5.43;;
23068;SDS011;11702;50.856;4.348;2023-03-19T15:01:22;6.32;;;4.80;;
23068;SDS011;11702;50.856;4.348;2023-03-19T15:04:33;5.43;;;4.47;;
23068;SDS011;11702;50.856;4.348;2023-03-19T15:06:45;6.93;;;4.23;;
23068;SDS011;11702;50.856;4.348;2023-03-19T15:09:28;5.85;;;4.13;;
23068;SDS011;11702;50.856;4.348;2023-03-19T15:17:33;9.60;;;3.60;;
23068;SDS011;11702;50.856;4.348;2023-03-19T15:20:01;6.15;;;3.50;;
23068;SDS011;11702;50.856;4.348;2023-03-19T15:22:29;7.22;;;3.85;;
23068;SDS011;11702;50.856;4.348;2023-03-19T15:25:06;11.85;;;5.32;;
23068;SDS011;11702;50.856;4.348;2023-03-19T15:27:35;8.95;;;4.28;;
23068;SDS011;11702;50.856;4.348;2023-03-19T15:30:01;6.50;;;4.15;;
23068;SDS011;11702;50.856;4.348;2023-03-19T15:32:31;7.25;;;3.92;;
23068;SDS011;11702;50.856;4.348;2023-03-19T15:34:59;10.45;;;4.13;;
23068;SDS011;11702;50.856;4.348;2023-03-19T15:37:25;8.88;;;4.50;;
23068;SDS011;11702;50.856;4.348;2023-03-19T15:39:56;7.38;;;4.25;;
23068;SDS011;11702;50.856;4.348;2023-03-19T15:42:24;8.63;;;4.97;;
23068;SDS011;11702;50.856;4.348;2023-03-19T15:44:52;14.52;;;5.28;;
23068;SDS011;11702;50.856;4.348;2023-03-19T15:47:26;9.85;;;4.80;;
23068;SDS011;11702;50.856;4.348;2023-03-19T15:49:58;10.82;;;4.55;;
23068;SDS011;11702;50.856;4.348;2023-03-19T15:52:30;6.95;;;4.53;;
23068;SDS011;11702;50.856;4.348;2023-03-19T15:55:00;10.30;;;4.95;;
23068;SDS011;11702;50.856;4.348;2023-03-19T15:57:27;6.53;;;4.82;;
23068;SDS011;11702;50.856;4.348;2023-03-19T15:59:53;7.47;;;5.60;;
23068;SDS011;11702;50.856;4.348;2023-03-19T16:02:31;10.27;;;5.55;;
23068;SDS011;11702;50.856;4.348;2023-03-19T16:04:58;10.23;;;6.15;;
23068;SDS011;11702;50.856;4.348;2023-03-19T16:07:34;9.40;;;5.88;;
23068;SDS011;11702;50.856;4.348;2023-03-19T16:13:03;9.55;;;5.10;;
23068;SDS011;11702;50.856;4.348;2023-03-19T16:15:58;12.32;;;6.13;;
23068;SDS011;11702;50.856;4.348;2023-03-19T16:18:27;11.45;;;5.78;;
23068;SDS011;11702;50.856;4.348;2023-03-19T16:26:01;11.32;;;6.13;;
23068;SDS011;11702;50.856;4.348;2023-03-19T16:28:40;12.73;;;7.40;;
23068;SDS011;11702;50.856;4.348;2023-03-19T16:31:17;11.13;;;6.55;;
23068;SDS011;11702;50.856;4.348;2023-03-19T16:33:46;14.18;;;6.05;;
23068;SDS011;11702;50.856;4.348;2023-03-19T16:36:15;11.30;;;6.10;;
23068;SDS011;11702;50.856;4.348;2023-03-19T16:38:42;16.42;;;6.28;;
23068;SDS011;11702;50.856;4.348;2023-03-19T16:41:22;11.48;;;6.07;;
23068;SDS011;11702;50.856;4.348;2023-03-19T16:43:59;14.60;;;5.85;;
23068;SDS011;11702;50.856;4.348;2023-03-19T16:46:36;15.60;;;6.50;;
23068;SDS011;11702;50.856;4.348;2023-03-19T16:49:02;11.75;;;5.50;;
23068;SDS011;11702;50.856;4.348;2023-03-19T16:51:28;11.35;;;5.38;;
23068;SDS011;11702;50.856;4.348;2023-03-19T16:53:54;11.65;;;5.70;;
23068;SDS011;11702;50.856;4.348;2023-03-19T16:56:19;8.50;;;5.30;;
23068;SDS011;11702;50.856;4.348;2023-03-19T16:58:45;11.65;;;5.60;;
23068;SDS011;11702;50.856;4.348;2023-03-19T17:01:16;15.68;;;5.55;;
23068;SDS011;11702;50.856;4.348;2023-03-19T17:03:46;11.13;;;5.30;;